Time;durP1;ratioP1;P1;durP2;ratioP2;P2;SDS_P1;SDS_P2;PMS_P1;PMS_P2;Temp;Humidity;BMP_temperature;BMP_pressure;BME280_temperature;BME280_humidity;BME280_pressure;Samples;Min_cycle;Max_cycle;Signal;HPM_P1;HPM_P2
2021/12/21 00:00:23;;;;;;;9.60;3.95;;;;;;;-3.09;100.00;99294.00;4316703;33;20049;-72
2021/12/21 00:03:07;;;;;;;15.77;3.90;;;;;;;-3.05;100.00;99303.22;4317705;33;20017;-73
2021/12/21 00:05:33;;;;;;;9.55;3.22;;;;;;;-3.11;100.00;99298.59;4316493;33;20430;-73
2021/12/21 00:08:03;;;;;;;4.70;2.78;;;;;;;-3.10;100.00;99316.03;4317585;33;20045;-73
2021/12/21 00:10:32;;;;;;;9.80;3.33;;;;;;;-3.15;100.00;99313.88;4317003;33;20037;-72
2021/12/21 00:15:48;;;;;;;12.57;4.12;;;;;;;-3.37;100.00;99257.25;4302329;33;20044;-73
2021/12/21 00:18:30;;;;;;;13.40;3.92;;;;;;;-3.69;100.00;99213.91;4316028;33;20029;-72
2021/12/21 00:23:46;;;;;;;8.68;3.22;;;;;;;-3.16;100.00;99300.84;4316531;33;20025;-73
2021/12/21 00:26:20;;;;;;;7.62;2.28;;;;;;;-3.20;100.00;99304.78;4315440;33;20044;-73
2021/12/21 00:31:16;;;;;;;7.05;2.80;;;;;;;-3.53;100.00;99262.41;4316058;33;20043;-73
2021/12/21 00:33:45;;;;;;;7.72;2.60;;;;;;;-3.41;100.00;99282.25;4315421;33;20030;-73
2021/12/21 00:36:17;;;;;;;8.98;2.72;;;;;;;-3.25;100.00;99314.97;4314361;33;20386;-73
2021/12/21 00:38:45;;;;;;;7.45;3.12;;;;;;;-3.29;100.00;99323.16;4316028;33;20427;-73
2021/12/21 00:41:12;;;;;;;9.63;3.28;;;;;;;-3.36;100.00;99310.75;4316739;33;20033;-73
2021/12/21 00:43:38;;;;;;;12.70;3.67;;;;;;;-3.41;100.00;99313.84;4316005;33;20032;-73
2021/12/21 00:46:05;;;;;;;11.90;3.55;;;;;;;-3.37;100.00;99319.62;4316575;33;20051;-73
2021/12/21 00:48:34;;;;;;;8.25;3.17;;;;;;;-3.42;100.00;99322.72;4316323;33;20062;-73
2021/12/21 00:51:04;;;;;;;8.80;3.00;;;;;;;-3.46;100.00;99331.91;4315908;33;20063;-73
2021/12/21 00:53:33;;;;;;;17.70;3.25;;;;;;;-3.53;100.00;99317.69;4314484;33;20025;-73
2021/12/21 00:55:59;;;;;;;10.40;3.83;;;;;;;-3.81;100.00;99277.47;4314922;33;20405;-73
2021/12/21 00:58:26;;;;;;;11.10;3.17;;;;;;;-3.60;100.00;99335.09;4316772;33;20044;-73
2021/12/21 01:00:53;;;;;;;8.70;2.92;;;;;;;-3.85;100.00;99287.47;4315668;33;20032;-73
2021/12/21 01:03:20;;;;;;;7.93;3.30;;;;;;;-3.91;100.00;99286.28;4315216;33;20199;-72
2021/12/21 01:05:57;;;;;;;8.23;3.33;;;;;;;-3.75;100.00;99322.44;4315306;33;20037;-73
2021/12/21 01:08:28;;;;;;;15.02;3.53;;;;;;;-4.01;100.00;99291.59;4314179;33;20051;-73
2021/12/21 01:11:12;;;;;;;8.13;3.25;;;;;;;-4.01;100.00;99296.84;4315705;33;20050;-73
2021/12/21 01:13:55;;;;;;;7.40;2.55;;;;;;;-3.89;100.00;99312.44;4315241;33;20078;-73
2021/12/21 01:16:31;;;;;;;4.32;2.45;;;;;;;-3.88;100.00;99319.34;4315428;33;20018;-73
2021/12/21 01:21:34;;;;;;;6.65;2.67;;;;;;;-3.84;100.00;99342.59;4315332;33;20021;-73
2021/12/21 01:29:31;;;;;;;12.98;4.28;;;;;;;-3.79;100.00;99347.41;4315772;33;20178;-73
2021/12/21 01:37:08;;;;;;;7.37;3.20;;;;;;;-3.77;100.00;99355.97;4316245;33;20059;-73
2021/12/21 01:50:06;;;;;;;6.47;3.40;;;;;;;-3.98;100.00;99287.84;4316103;33;20016;-72
2021/12/21 01:52:33;;;;;;;7.72;3.72;;;;;;;-3.89;100.00;99318.53;4315014;33;20040;-73
2021/12/21 01:54:59;;;;;;;7.60;2.97;;;;;;;-4.03;100.00;99296.19;4313393;33;20064;-73
2021/12/21 01:57:26;;;;;;;7.62;3.28;;;;;;;-3.68;100.00;99355.06;4314452;33;20148;-72
2021/12/21 01:59:53;;;;;;;6.15;2.37;;;;;;;-3.75;100.00;99340.88;4302933;33;20041;-72
2021/12/21 02:02:20;;;;;;;2.33;2.05;;;;;;;-3.67;100.00;99343.59;4314519;33;20101;-72
2021/12/21 02:04:47;;;;;;;7.93;2.67;;;;;;;-3.64;100.00;99345.06;4313644;33;20050;-72
2021/12/21 02:07:14;;;;;;;4.75;2.75;;;;;;;-3.72;100.00;99337.09;4315899;33;20059;-73
2021/12/21 02:09:41;;;;;;;4.82;2.37;;;;;;;-4.10;100.00;99282.00;4314358;33;20446;-73
2021/12/21 02:12:11;;;;;;;5.55;2.28;;;;;;;-3.74;100.00;99354.84;4314774;33;20070;-73
2021/12/21 02:14:38;;;;;;;4.18;2.25;;;;;;;-3.68;100.00;99360.34;4315413;33;20037;-73
2021/12/21 02:20:36;;;;;;;5.12;2.75;;;;;;;-3.74;100.00;99349.59;4315801;33;20354;-73
2021/12/21 02:28:21;;;;;;;4.82;1.73;;;;;;;-3.78;100.00;99340.31;4314104;33;20062;-73
2021/12/21 02:30:52;;;;;;;5.50;2.08;;;;;;;-3.83;100.00;99352.16;4314403;33;20398;-72
2021/12/21 02:33:20;;;;;;;5.18;2.35;;;;;;;-3.85;100.00;99346.19;4317921;33;20315;-73
2021/12/21 02:35:48;;;;;;;9.80;2.70;;;;;;;-4.13;100.00;99303.31;4318028;33;20324;-72
2021/12/21 02:38:14;;;;;;;11.35;2.83;;;;;;;-3.92;100.00;99331.16;4318677;33;20036;-72
2021/12/21 02:40:41;;;;;;;4.05;1.70;;;;;;;-3.95;100.00;99355.13;4320336;33;20042;-72
2021/12/21 02:43:10;;;;;;;4.32;1.55;;;;;;;-4.38;100.00;99283.81;4318221;33;20058;-72
2021/12/21 02:45:38;;;;;;;5.30;2.80;;;;;;;-4.19;100.00;99314.44;4319028;33;20036;-72
2021/12/21 02:48:05;;;;;;;10.82;2.37;;;;;;;-4.03;100.00;99325.13;4318646;33;20048;-72
2021/12/21 02:50:33;;;;;;;6.15;2.50;;;;;;;-4.23;100.00;99303.41;4318972;33;20075;-72
2021/12/21 02:53:02;;;;;;;9.43;3.42;;;;;;;-3.94;100.00;99343.63;4320272;33;20366;-73
2021/12/21 02:55:28;;;;;;;5.47;2.20;;;;;;;-4.03;100.00;99337.47;4320366;33;20070;-73
2021/12/21 02:57:57;;;;;;;7.60;2.87;;;;;;;-3.90;100.00;99351.06;4320303;33;20063;-73
2021/12/21 03:00:26;;;;;;;5.80;2.42;;;;;;;-3.92;100.00;99352.22;4319883;33;20036;-72
2021/12/21 03:02:53;;;;;;;7.45;2.62;;;;;;;-3.88;100.00;99354.41;4319150;33;20037;-71
2021/12/21 03:05:20;;;;;;;14.87;2.60;;;;;;;-3.96;100.00;99345.56;4319467;33;20237;-71
2021/12/21 03:10:25;;;;;;;3.62;2.42;;;;;;;-3.91;100.00;99348.59;4319935;33;20024;-72
2021/12/21 03:15:21;;;;;;;5.18;2.45;;;;;;;-3.83;100.00;99362.66;4318957;33;20400;-72
2021/12/21 03:17:49;;;;;;;7.90;2.17;;;;;;;-3.93;100.00;99361.06;4318001;33;20080;-72
2021/12/21 03:20:16;;;;;;;10.60;3.72;;;;;;;-3.89;100.00;99362.44;4319065;33;20351;-72
2021/12/21 03:22:43;;;;;;;5.43;2.67;;;;;;;-3.87;100.00;99365.75;4318258;33;20037;-72
2021/12/21 03:25:12;;;;;;;9.02;3.08;;;;;;;-3.84;100.00;99371.53;4319661;33;20060;-72
2021/12/21 03:27:38;;;;;;;4.82;2.12;;;;;;;-3.86;100.00;99372.62;4320147;33;20041;-72
2021/12/21 03:30:08;;;;;;;10.27;1.85;;;;;;;-3.88;100.00;99370.19;4331045;33;20066;-72
2021/12/21 03:32:35;;;;;;;6.12;2.42;;;;;;;-3.87;100.00;99365.75;4330557;33;20036;-72
2021/12/21 03:35:03;;;;;;;7.15;2.50;;;;;;;-3.89;100.00;99351.91;4320342;33;20040;-72
2021/12/21 03:37:29;;;;;;;5.70;2.75;;;;;;;-3.94;100.00;99343.63;4320114;33;20045;-73
2021/12/21 03:39:58;;;;;;;5.53;2.35;;;;;;;-4.11;100.00;99325.03;4318523;33;20037;-73
2021/12/21 03:42:24;;;;;;;12.27;3.12;;;;;;;-3.80;100.00;99372.03;4319131;33;20468;-73
2021/12/21 03:44:58;;;;;;;11.30;2.67;;;;;;;-3.83;100.00;99359.19;4314685;33;20443;-73
2021/12/21 03:47:25;;;;;;;6.95;2.12;;;;;;;-3.81;100.00;99367.78;4317845;33;20049;-73
2021/12/21 03:49:55;;;;;;;6.68;2.53;;;;;;;-3.84;100.00;99370.72;4327466;33;20066;-73
2021/12/21 03:52:25;;;;;;;0.77;0.77;;;;;;;-4.17;100.00;99322.19;4316259;33;20049;-73
2021/12/21 03:54:58;;;;;;;6.47;2.47;;;;;;;-4.24;100.00;99321.94;4316793;33;20051;-74
2021/12/21 03:57:25;;;;;;;9.48;2.50;;;;;;;-4.10;100.00;99337.22;4328443;33;20066;-73
2021/12/21 03:59:53;;;;;;;7.00;2.40;;;;;;;-4.18;100.00;99326.59;4316516;33;20049;-74
2021/12/21 04:02:22;;;;;;;2.42;1.33;;;;;;;-3.87;100.00;99371.00;4327090;33;20429;-73
2021/12/21 04:04:49;;;;;;;2.75;2.25;;;;;;;-4.24;100.00;99328.03;4316127;33;20052;-73
2021/12/21 04:07:16;;;;;;;7.90;2.70;;;;;;;-3.95;100.00;99368.28;4317448;33;20071;-73
2021/12/21 04:09:43;;;;;;;6.18;2.80;;;;;;;-3.96;100.00;99366.63;4315798;33;20044;-73
2021/12/21 04:12:10;;;;;;;6.12;2.70;;;;;;;-4.01;100.00;99360.00;4316075;33;20070;-73
2021/12/21 04:14:37;;;;;;;11.75;3.08;;;;;;;-4.15;100.00;99343.88;4316111;33;20438;-73
2021/12/21 04:17:04;;;;;;;4.10;1.10;;;;;;;-3.86;100.00;99391.06;4317007;33;20049;-73
2021/12/21 04:19:31;;;;;;;6.43;2.37;;;;;;;-3.95;100.00;99384.06;4316295;33;20071;-73
2021/12/21 04:21:58;;;;;;;7.60;2.70;;;;;;;-3.96;100.00;99388.50;4327903;33;20045;-73
2021/12/21 04:24:24;;;;;;;8.77;3.17;;;;;;;-4.18;100.00;99352.87;4326980;33;20037;-73
2021/12/21 04:26:51;;;;;;;14.60;3.20;;;;;;;-4.01;100.00;99391.56;4315845;33;20396;-73
2021/12/21 04:29:18;;;;;;;8.02;2.87;;;;;;;-4.07;100.00;99400.06;4316209;33;20049;-72
2021/12/21 04:31:44;;;;;;;5.05;3.20;;;;;;;-4.23;100.00;99360.41;4317145;33;20056;-72
2021/12/21 04:34:11;;;;;;;8.25;2.53;;;;;;;-4.45;100.00;99338.78;4317128;33;20386;-72
2021/12/21 04:36:38;;;;;;;7.03;3.00;;;;;;;-4.32;100.00;99350.75;4315648;33;20049;-72
2021/12/21 04:39:16;;;;;;;10.50;2.90;;;;;;;-4.14;100.00;99374.50;4315832;33;20063;-72
2021/12/21 04:41:44;;;;;;;4.00;1.80;;;;;;;-4.41;100.00;99353.28;4304060;33;20050;-72
2021/12/21 04:44:11;;;;;;;10.93;2.97;;;;;;;-4.63;100.00;99328.19;4315997;33;20106;-72
2021/12/21 04:46:37;;;;;;;4.47;2.40;;;;;;;-4.42;100.00;99346.37;4315293;33;20049;-71
2021/12/21 04:49:04;;;;;;;12.88;3.58;;;;;;;-4.12;100.00;99399.66;4315551;33;20041;-72
2021/12/21 04:51:31;;;;;;;9.63;2.30;;;;;;;-4.16;100.00;99398.31;4315308;33;20126;-72
2021/12/21 04:53:57;;;;;;;3.87;1.92;;;;;;;-4.38;100.00;99366.13;4316921;33;20488;-72
2021/12/21 04:56:24;;;;;;;7.78;2.45;;;;;;;-4.16;100.00;99419.34;4315256;33;20037;-72
2021/12/21 04:58:51;;;;;;;5.12;3.00;;;;;;;-4.30;100.00;99385.63;4302633;33;20080;-72
2021/12/21 05:01:17;;;;;;;9.32;2.17;;;;;;;-4.33;100.00;99401.69;4315852;33;20036;-72
2021/12/21 05:03:44;;;;;;;6.72;2.33;;;;;;;-4.43;100.00;99388.59;4315574;33;20074;-72
2021/12/21 05:06:10;;;;;;;9.13;1.80;;;;;;;-4.29;100.00;99414.41;4314999;33;20088;-72
2021/12/21 05:08:39;;;;;;;5.68;2.25;;;;;;;-4.48;100.00;99398.69;4315469;33;20351;-72
2021/12/21 05:11:07;;;;;;;4.68;1.92;;;;;;;-4.39;100.00;99434.63;4313875;33;20378;-72
2021/12/21 05:13:36;;;;;;;5.32;3.05;;;;;;;-4.45;100.00;99411.53;4314837;33;20045;-72
2021/12/21 05:16:03;;;;;;;10.48;3.17;;;;;;;-4.67;100.00;99368.87;4315679;33;20449;-73
2021/12/21 05:18:32;;;;;;;8.20;3.28;;;;;;;-4.82;100.00;99347.50;4315764;33;20084;-73
2021/12/21 05:20:59;;;;;;;13.75;5.57;;;;;;;-4.43;100.00;99420.97;4316570;33;20048;-73
2021/12/21 05:23:26;;;;;;;9.02;3.53;;;;;;;-4.41;100.00;99434.78;4315608;33;20099;-73
2021/12/21 05:25:52;;;;;;;4.47;2.75;;;;;;;-4.50;100.00;99417.25;4315295;33;20363;-73
2021/12/21 05:28:19;;;;;;;12.90;2.97;;;;;;;-4.44;100.00;99421.91;4314403;33;20045;-72
2021/12/21 05:30:46;;;;;;;5.07;2.83;;;;;;;-4.52;100.00;99429.69;4313544;33;20036;-72
2021/12/21 05:33:14;;;;;;;10.38;4.07;;;;;;;-4.57;100.00;99427.50;4316055;33;20067;-72
2021/12/21 05:35:41;;;;;;;8.23;2.30;;;;;;;-4.75;100.00;99382.75;4314877;33;20068;-72
2021/12/21 05:38:09;;;;;;;8.98;3.42;;;;;;;-4.51;100.00;99430.53;4314904;33;20066;-72
2021/12/21 05:40:40;;;;;;;4.90;2.72;;;;;;;-4.51;100.00;99439.25;4316453;33;20408;-72
2021/12/21 05:43:09;;;;;;;7.72;3.22;;;;;;;-4.52;100.00;99440.22;4315865;33;20051;-71
2021/12/21 05:45:36;;;;;;;5.87;2.42;;;;;;;-4.78;100.00;99393.53;4316095;33;20057;-72
2021/12/21 05:48:03;;;;;;;4.53;2.92;;;;;;;-4.75;100.00;99403.75;4314472;33;20040;-71
2021/12/21 05:50:30;;;;;;;6.03;3.10;;;;;;;-4.46;100.00;99438.81;4314470;33;20429;-72
2021/12/21 05:52:57;;;;;;;10.85;3.22;;;;;;;-4.49;100.00;99437.28;4314832;33;20044;-73
2021/12/21 05:55:24;;;;;;;5.47;2.05;;;;;;;-4.48;100.00;99431.09;4314418;33;20044;-72
2021/12/21 05:57:50;;;;;;;1.20;1.08;;;;;;;-4.79;100.00;99391.87;4314772;33;20076;-72
2021/12/21 06:00:22;;;;;;;12.75;3.42;;;;;;;-4.67;100.00;99424.06;4314710;33;20070;-72
2021/12/21 06:02:49;;;;;;;6.10;2.55;;;;;;;-4.65;100.00;99442.31;4314750;33;20020;-72
2021/12/21 06:05:16;;;;;;;14.93;3.17;;;;;;;-4.77;100.00;99431.13;4315268;33;20044;-72
2021/12/21 06:07:42;;;;;;;8.90;4.28;;;;;;;-4.66;100.00;99443.28;4314009;33;20044;-72
2021/12/21 06:10:13;;;;;;;8.10;3.05;;;;;;;-4.63;100.00;99453.50;4301604;33;20067;-72
2021/12/21 06:26:24;;;;;;;5.20;2.95;;;;;;;-4.59;100.00;99457.53;4288190;33;20063;-72
2021/12/21 06:28:52;;;;;;;9.70;3.90;;;;;;;-4.86;100.00;99414.44;4314978;33;20194;-72
2021/12/21 06:31:18;;;;;;;7.57;2.78;;;;;;;-4.63;100.00;99464.84;4314755;33;20358;-73
2021/12/21 06:33:45;;;;;;;6.93;3.37;;;;;;;-4.85;100.00;99413.47;4314772;33;20382;-73
2021/12/21 06:36:12;;;;;;;2.42;2.15;;;;;;;-4.93;100.00;99413.31;4325078;33;20088;-73
2021/12/21 06:38:39;;;;;;;7.07;3.55;;;;;;;-5.05;100.00;99417.09;4314563;33;20025;-73
2021/12/21 06:41:06;;;;;;;10.40;4.62;;;;;;;-4.70;100.00;99487.41;4315561;33;20037;-74
2021/12/21 06:43:33;;;;;;;7.85;3.15;;;;;;;-4.63;100.00;99490.31;4326456;33;20028;-74
2021/12/21 06:53:55;;;;;;;4.87;3.62;;;;;;;-4.90;100.00;99462.13;4315909;33;20098;-74
2021/12/21 06:56:22;;;;;;;8.75;4.00;;;;;;;-4.94;100.00;99456.34;4315465;33;20106;-73
2021/12/21 06:58:49;;;;;;;4.62;2.60;;;;;;;-4.70;100.00;99499.75;4326640;33;20028;-73
2021/12/21 07:01:16;;;;;;;13.07;3.90;;;;;;;-5.04;100.00;99450.25;4313518;33;20058;-73
2021/12/21 07:03:44;;;;;;;13.57;4.35;;;;;;;-4.80;100.00;99494.50;4316020;33;20171;-74
2021/12/21 07:06:11;;;;;;;14.48;6.25;;;;;;;-4.93;100.00;99473.72;4315554;33;20059;-73
2021/12/21 07:11:43;;;;;;;9.05;3.42;;;;;;;-4.94;100.00;99456.34;4314532;33;20017;-73
2021/12/21 07:19:45;;;;;;;13.65;4.00;;;;;;;-4.62;100.00;99507.75;4317760;33;20335;-75
2021/12/21 07:22:11;;;;;;;10.65;5.12;;;;;;;-4.62;100.00;99507.75;4329216;33;20072;-74
2021/12/21 07:24:38;;;;;;;11.95;5.43;;;;;;;-4.55;100.00;99498.31;4317948;33;20190;-74
2021/12/21 07:27:05;;;;;;;12.63;5.03;;;;;;;-4.52;100.00;99495.41;4318092;33;20070;-74
2021/12/21 07:29:32;;;;;;;15.60;5.72;;;;;;;-4.51;100.00;99489.19;4318019;33;20452;-75
2021/12/21 07:31:58;;;;;;;11.27;5.32;;;;;;;-4.52;100.00;99482.25;4318078;33;20050;-75
2021/12/21 07:34:25;;;;;;;14.52;5.78;;;;;;;-4.44;100.00;99489.44;4317189;33;20044;-74
2021/12/21 07:36:51;;;;;;;13.60;5.87;;;;;;;-4.43;100.00;99486.69;4318044;33;20078;-74
2021/12/21 07:39:18;;;;;;;21.85;5.65;;;;;;;-4.42;100.00;99490.97;4316326;33;20036;-74
2021/12/21 07:41:46;;;;;;;10.70;5.03;;;;;;;-4.78;100.00;99440.81;4316750;33;20366;-76
2021/12/21 07:44:13;;;;;;;15.35;5.80;;;;;;;-4.58;100.00;99472.31;4317688;33;20036;-74
2021/12/21 07:46:42;;;;;;;8.93;5.37;;;;;;;-4.63;100.00;99461.41;4317300;33;20083;-74
2021/12/21 07:49:09;;;;;;;17.20;6.60;;;;;;;-4.31;100.00;99515.44;4316369;33;20037;-75
2021/12/21 07:51:36;;;;;;;17.62;6.87;;;;;;;-4.38;100.00;99520.44;4316742;33;20032;-74
2021/12/21 07:54:02;;;;;;;16.23;6.53;;;;;;;-4.40;100.00;99517.94;4317967;33;20033;-74
2021/12/21 07:56:30;;;;;;;11.98;4.95;;;;;;;-4.70;100.00;99478.72;4317906;33;20041;-74
2021/12/21 07:58:57;;;;;;;10.93;5.43;;;;;;;-4.43;100.00;99526.09;4317729;33;20063;-74
2021/12/21 08:01:24;;;;;;;15.80;6.10;;;;;;;-4.35;100.00;99532.47;4316511;33;20051;-74
2021/12/21 08:03:53;;;;;;;25.30;6.93;;;;;;;-4.30;100.00;99530.25;4316532;33;20122;-74
2021/12/21 08:06:19;;;;;;;13.60;6.72;;;;;;;-4.22;100.00;99530.38;4317581;33;20067;-73
2021/12/21 08:08:48;;;;;;;21.30;6.62;;;;;;;-4.18;100.00;99531.72;4317590;33;20067;-74
2021/12/21 08:11:28;;;;;;;18.17;6.53;;;;;;;-4.14;100.00;99543.63;4316238;33;20189;-74
2021/12/21 08:13:56;;;;;;;18.90;7.35;;;;;;;-4.27;100.00;99524.72;4302992;33;20025;-75
2021/12/21 08:16:23;;;;;;;16.98;6.43;;;;;;;-4.27;100.00;99537.84;4317357;33;20317;-74
2021/12/21 08:18:50;;;;;;;19.75;6.65;;;;;;;-4.55;100.00;99490.44;4316831;33;20371;-74
2021/12/21 08:21:18;;;;;;;19.17;6.43;;;;;;;-4.25;100.00;99541.97;4316241;33;20058;-74
2021/12/21 08:23:46;;;;;;;8.65;4.55;;;;;;;-4.43;100.00;99518.22;4304165;33;20037;-74
2021/12/21 08:26:12;;;;;;;13.55;6.00;;;;;;;-4.50;100.00;99490.84;4307146;33;20385;-74
2021/12/21 08:28:39;;;;;;;13.82;5.55;;;;;;;-4.22;100.00;99543.50;4287840;33;20049;-73
2021/12/21 08:31:10;;;;;;;15.73;5.45;;;;;;;-4.15;100.00;99551.66;4301206;33;20431;-74
2021/12/21 08:33:37;;;;;;;10.55;5.93;;;;;;;-4.39;100.00;99503.84;4289315;33;20051;-75
2021/12/21 08:36:05;;;;;;;10.13;5.53;;;;;;;-4.20;100.00;99547.66;4302302;33;20066;-74
2021/12/21 08:38:33;;;;;;;11.30;5.18;;;;;;;-4.22;100.00;99540.88;4287826;33;20535;-74
2021/12/21 08:41:00;;;;;;;13.77;5.45;;;;;;;-4.36;100.00;99509.78;4288852;33;20375;-74
2021/12/21 08:43:28;;;;;;;15.55;5.55;;;;;;;-4.13;100.00;99544.44;4302175;33;20096;-74
2021/12/21 08:45:56;;;;;;;16.87;6.10;;;;;;;-4.06;100.00;99556.06;4301492;33;20389;-73
2021/12/21 08:48:24;;;;;;;11.48;5.62;;;;;;;-4.01;100.00;99544.13;4302330;33;20063;-73
2021/12/21 08:50:54;;;;;;;13.25;5.37;;;;;;;-3.98;100.00;99558.00;4302191;33;20393;-73
2021/12/21 08:53:22;;;;;;;14.25;5.50;;;;;;;-4.40;100.00;99523.19;4302105;33;20423;-73
2021/12/21 08:55:51;;;;;;;15.43;5.60;;;;;;;-4.10;100.00;99560.78;4302114;33;20363;-73
2021/12/21 08:58:19;;;;;;;13.50;6.82;;;;;;;-4.44;100.00;99511.28;4302145;33;20033;-74
2021/12/21 09:00:47;;;;;;;11.82;5.72;;;;;;;-4.16;100.00;99566.63;4302049;33;20074;-73
2021/12/21 09:03:13;;;;;;;13.23;6.57;;;;;;;-4.12;100.00;99562.72;4302061;33;20059;-74
2021/12/21 09:05:41;;;;;;;34.60;12.37;;;;;;;-4.40;100.00;99527.63;4302047;33;20038;-74
2021/12/21 09:08:10;;;;;;;22.90;9.23;;;;;;;-4.04;100.00;99581.28;4302122;33;20063;-73
2021/12/21 09:10:39;;;;;;;19.15;7.07;;;;;;;-4.07;100.00;99568.41;4301737;33;20399;-73
2021/12/21 09:13:06;;;;;;;16.52;6.93;;;;;;;-4.25;100.00;99525.38;4300950;33;20055;-73
2021/12/21 09:15:33;;;;;;;18.58;7.62;;;;;;;-3.88;100.00;99570.16;4313689;33;20062;-73
2021/12/21 09:17:59;;;;;;;14.48;6.30;;;;;;;-3.78;100.00;99575.38;4316433;33;20041;-74
2021/12/21 09:20:28;;;;;;;13.75;6.85;;;;;;;-4.15;100.00;99525.34;4316515;33;20033;-73
2021/12/21 09:22:55;;;;;;;26.10;9.80;;;;;;;-4.12;100.00;99539.03;4301624;33;20036;-73
2021/12/21 09:25:23;;;;;;;28.70;9.70;;;;;;;-3.84;100.00;99576.78;4317217;33;20076;-74
2021/12/21 09:27:51;;;;;;;27.13;8.00;;;;;;;-3.81;100.00;99570.41;4316229;33;20037;-73
2021/12/21 09:30:20;;;;;;;22.75;8.50;;;;;;;-3.80;100.00;99585.19;4316877;33;20059;-75
2021/12/21 09:32:47;;;;;;;17.35;6.47;;;;;;;-3.79;100.00;99588.69;4315074;33;20036;-74
2021/12/21 09:35:13;;;;;;;22.30;8.00;;;;;;;-4.11;100.00;99548.59;4316212;33;20062;-74
2021/12/21 09:37:41;;;;;;;22.80;7.50;;;;;;;-3.88;100.00;99580.69;4327345;33;20040;-74
2021/12/21 09:40:11;;;;;;;21.85;6.68;;;;;;;-3.74;100.00;99587.25;4316132;33;20077;-74
2021/12/21 09:42:38;;;;;;;28.58;8.27;;;;;;;-4.02;100.00;99537.22;4315533;33;20016;-75
2021/12/21 09:45:06;;;;;;;16.37;6.30;;;;;;;-3.96;100.00;99545.50;4315962;33;20062;-74
2021/12/21 09:47:33;;;;;;;18.65;7.53;;;;;;;-3.72;100.00;99587.97;4315891;33;20110;-72
2021/12/21 09:50:00;;;;;;;17.73;6.35;;;;;;;-3.76;100.00;99581.31;4315936;33;20036;-72
2021/12/21 09:52:29;;;;;;;14.68;6.43;;;;;;;-3.91;100.00;99540.66;4308110;33;20063;-73
2021/12/21 09:54:57;;;;;;;13.23;5.62;;;;;;;-3.98;100.00;99527.25;4299678;33;20034;-73
2021/12/21 09:57:23;;;;;;;13.07;6.32;;;;;;;-3.74;100.00;99582.00;4299721;33;20037;-73
2021/12/21 09:59:51;;;;;;;12.80;6.28;;;;;;;-3.89;100.00;99542.16;4300001;33;20091;-73
2021/12/21 10:02:21;;;;;;;16.30;6.35;;;;;;;-3.56;100.00;99582.06;4301772;33;20029;-73
2021/12/21 10:04:55;;;;;;;12.82;6.15;;;;;;;-3.61;100.00;99570.31;4301516;33;20071;-74
2021/12/21 10:07:23;;;;;;;14.35;6.43;;;;;;;-3.51;100.00;99571.94;4300304;33;20132;-73
2021/12/21 10:10:00;;;;;;;15.40;6.43;;;;;;;-3.47;100.00;99577.75;4299463;33;20021;-74
2021/12/21 10:12:30;;;;;;;16.05;6.53;;;;;;;-3.44;100.00;99572.19;4301351;33;20039;-75
2021/12/21 10:15:02;;;;;;;19.65;7.62;;;;;;;-3.35;100.00;99575.72;4301230;33;20045;-74
2021/12/21 10:17:32;;;;;;;12.20;5.87;;;;;;;-3.72;100.00;99537.97;4301178;33;20018;-74
2021/12/21 10:20:03;;;;;;;8.95;5.70;;;;;;;-3.73;100.00;99523.13;4312166;33;20050;-74
2021/12/21 10:22:29;;;;;;;9.65;5.00;;;;;;;-3.42;100.00;99570.22;4309906;33;20028;-74
2021/12/21 10:24:56;;;;;;;11.82;4.85;;;;;;;-3.42;100.00;99564.97;4305312;33;20037;-74
2021/12/21 10:27:24;;;;;;;9.07;4.20;;;;;;;-3.46;100.00;99521.47;4315093;33;20465;-74
2021/12/21 10:29:57;;;;;;;9.88;3.58;;;;;;;-3.16;100.00;99564.25;4302916;33;20423;-74
2021/12/21 10:32:32;;;;;;;8.60;5.00;;;;;;;-3.15;100.00;99544.84;4315684;33;20327;-75
2021/12/21 10:35:08;;;;;;;6.78;4.32;;;;;;;-2.97;100.00;99553.63;4313799;33;20046;-75
2021/12/21 10:37:39;;;;;;;8.82;4.40;;;;;;;-2.93;100.00;99560.22;4315639;33;20031;-75
2021/12/21 10:40:05;;;;;;;6.22;3.80;;;;;;;-3.60;100.00;99493.03;4315894;33;20029;-74
2021/12/21 10:42:42;;;;;;;11.40;5.85;;;;;;;-3.31;100.00;99562.12;4317255;33;20072;-75
2021/12/21 10:45:09;;;;;;;17.92;5.70;;;;;;;-3.50;100.00;99509.56;4316275;33;20021;-75
2021/12/21 10:47:36;;;;;;;21.73;6.90;;;;;;;-3.54;100.00;99550.31;4304198;33;20033;-75
2021/12/21 10:50:05;;;;;;;21.02;5.87;;;;;;;-3.60;100.00;99557.00;4317966;33;20029;-75
2021/12/21 10:52:32;;;;;;;24.30;7.72;;;;;;;-3.52;100.00;99553.66;4303414;33;20110;-75
2021/12/21 10:54:58;;;;;;;11.05;4.50;;;;;;;-3.30;100.00;99548.00;4306645;33;20063;-76
2021/12/21 10:57:32;;;;;;;11.57;5.18;;;;;;;-3.20;100.00;99553.19;4291817;33;20143;-76
2021/12/21 11:00:06;;;;;;;10.63;4.62;;;;;;;-3.53;100.00;99494.88;4309029;33;20498;-77
2021/12/21 11:02:38;;;;;;;10.23;4.10;;;;;;;-3.42;100.00;99499.13;4321495;33;20080;-74
2021/12/21 11:05:15;;;;;;;6.87;4.05;;;;;;;-3.03;100.00;99538.41;4316797;33;20058;-73
2021/12/21 11:10:24;;;;;;;14.38;5.97;;;;;;;-3.25;100.00;99496.69;4316350;33;20032;-73
2021/12/21 11:12:57;;;;;;;23.95;6.53;;;;;;;-2.86;100.00;99533.28;4317080;33;20017;-74
2021/12/21 11:15:35;;;;;;;32.95;9.82;;;;;;;-3.05;100.00;99535.06;4305209;33;20047;-79
2021/12/21 11:18:08;;;;;;;9.90;4.68;;;;;;;-3.10;100.00;99526.78;4317989;33;20074;-75
2021/12/21 11:20:37;;;;;;;7.18;3.47;;;;;;;-3.07;100.00;99525.69;4318152;33;20005;-74
2021/12/21 11:23:05;;;;;;;127.30;25.05;;;;;;;-3.18;100.00;99508.28;4318243;33;20037;-77
2021/12/21 11:25:35;;;;;;;28.30;8.45;;;;;;;-3.11;100.00;99499.63;4318782;33;20080;-76
2021/12/21 11:28:04;;;;;;;12.15;5.68;;;;;;;-3.07;100.00;99526.50;4317764;33;20106;-75
2021/12/21 11:30:34;;;;;;;7.82;4.07;;;;;;;-2.98;100.00;99538.78;4317820;33;20111;-77
2021/12/21 11:33:06;;;;;;;10.85;4.57;;;;;;;-3.36;100.00;99493.28;4316383;33;20038;-76
2021/12/21 11:38:10;;;;;;;9.68;4.40;;;;;;;-3.35;100.00;99475.66;4316538;33;20063;-75
2021/12/21 11:40:47;;;;;;;13.85;5.30;;;;;;;-3.33;100.00;99521.94;4316611;33;20008;-75
2021/12/21 11:43:27;;;;;;;12.90;5.37;;;;;;;-3.50;100.00;99480.63;4318283;33;20359;-75
2021/12/21 11:46:25;;;;;;;30.55;7.32;;;;;;;-3.00;100.00;99539.88;4317091;33;20017;-73
2021/12/21 11:49:10;;;;;;;11.40;3.67;;;;;;;-3.41;100.00;99492.91;4314075;33;20047;-73
2021/12/21 11:51:37;;;;;;;10.75;3.85;;;;;;;-3.16;100.00;99528.22;4317235;33;20042;-72
2021/12/21 11:54:14;;;;;;;4.78;3.33;;;;;;;-3.47;100.00;99482.97;4316811;33;20348;-73
2021/12/21 11:56:41;;;;;;;9.27;3.95;;;;;;;-3.28;100.00;99501.25;4315471;33;20051;-73
2021/12/21 11:59:08;;;;;;;11.80;4.18;;;;;;;-3.33;100.00;99473.72;4328603;33;20033;-73
2021/12/21 12:01:46;;;;;;;13.00;4.43;;;;;;;-3.12;100.00;99526.94;4317212;33;20025;-74
2021/12/21 12:04:13;;;;;;;52.47;9.73;;;;;;;-3.22;100.00;99501.62;4317399;33;20045;-73
2021/12/21 12:06:47;;;;;;;29.35;8.35;;;;;;;-3.30;100.00;99505.84;4316132;33;20189;-73
2021/12/21 12:09:26;;;;;;;52.80;10.38;;;;;;;-3.34;100.00;99512.38;4328892;33;20392;-72
2021/12/21 12:12:14;;;;;;;15.07;5.62;;;;;;;-3.26;100.00;99510.81;4315835;33;20051;-72
2021/12/21 12:14:44;;;;;;;12.05;4.03;;;;;;;-3.56;100.00;99437.28;4316482;33;20032;-72
2021/12/21 12:17:22;;;;;;;29.75;5.80;;;;;;;-3.12;100.00;99523.47;4315533;33;20472;-72
2021/12/21 12:20:02;;;;;;;10.32;4.20;;;;;;;-3.28;100.00;99482.00;4315931;33;20037;-73
2021/12/21 12:22:41;;;;;;;13.20;3.75;;;;;;;-2.90;100.00;99526.63;4316165;33;20392;-74
2021/12/21 12:25:16;;;;;;;8.70;3.53;;;;;;;-2.89;100.00;99523.84;4316807;33;20045;-73
2021/12/21 12:27:46;;;;;;;11.23;3.95;;;;;;;-2.97;100.00;99529.91;4316598;33;20047;-73
2021/12/21 12:30:18;;;;;;;8.48;4.20;;;;;;;-3.10;100.00;99484.63;4315605;33;20053;-73
2021/12/21 12:33:00;;;;;;;6.57;3.25;;;;;;;-2.84;100.00;99526.88;4316164;33;20037;-74
2021/12/21 12:35:33;;;;;;;7.25;3.55;;;;;;;-3.26;100.00;99472.12;4317759;33;20072;-73
2021/12/21 12:38:02;;;;;;;13.88;3.70;;;;;;;-3.08;100.00;99498.47;4303989;33;20025;-73
2021/12/21 12:40:41;;;;;;;14.70;4.60;;;;;;;-3.08;100.00;99524.81;4317554;33;20057;-73
2021/12/21 12:43:10;;;;;;;8.02;4.53;;;;;;;-2.89;100.00;99518.59;4317778;33;20021;-73
2021/12/21 12:45:42;;;;;;;6.97;3.53;;;;;;;-3.26;100.00;99510.81;4317147;33;20082;-73
2021/12/21 12:48:25;;;;;;;10.77;3.83;;;;;;;-3.12;100.00;99523.47;4316186;33;20025;-74
2021/12/21 12:50:54;;;;;;;12.10;3.80;;;;;;;-3.24;100.00;99524.66;4313356;33;20016;-73